Time;durP1;ratioP1;P1;durP2;ratioP2;P2;SDS_P1;SDS_P2;PMS_P1;PMS_P2;Temp;Humidity;BMP_temperature;BMP_pressure;BME280_temperature;BME280_humidity;BME280_pressure;Samples;Min_cycle;Max_cycle;Signal;HPM_P1;HPM_P2
2023/03/10 00:01:45;;;;;;;6.63;3.30;;;;;;;-1.63;72.98;101255.63;4894435;28;20048;-69
2023/03/10 00:04:15;;;;;;;5.75;3.25;;;;;;;-1.55;72.80;101256.88;4894776;28;20111;-67
2023/03/10 00:06:46;;;;;;;6.53;3.17;;;;;;;-1.73;73.36;101255.16;4894067;28;20114;-67
2023/03/10 00:09:17;;;;;;;2.05;1.55;;;;;;;-2.30;75.80;101251.44;4909278;28;20062;-64
2023/03/10 00:11:49;;;;;;;3.95;2.08;;;;;;;-2.74;77.84;101255.16;4883064;28;20049;-64
2023/03/10 00:14:19;;;;;;;4.22;2.38;;;;;;;-2.76;78.47;101264.41;4872784;28;20059;-68
2023/03/10 00:16:50;;;;;;;4.38;2.53;;;;;;;-2.86;77.92;101257.03;4879675;28;20626;-70
2023/03/10 00:19:20;;;;;;;3.42;2.33;;;;;;;-3.03;79.24;101249.34;4902391;28;20522;-67
2023/03/10 00:21:51;;;;;;;3.88;2.67;;;;;;;-3.18;80.45;101245.06;4917374;28;20113;-65
2023/03/10 00:24:21;;;;;;;3.70;2.00;;;;;;;-3.31;81.58;101257.19;4916173;28;20052;-68
2023/03/10 00:26:54;;;;;;;3.67;2.25;;;;;;;-3.24;82.35;101245.63;4883284;28;20049;-65
2023/03/10 00:29:24;;;;;;;2.17;1.60;;;;;;;-3.30;82.61;101237.59;4883180;28;20443;-66
2023/03/10 00:31:55;;;;;;;4.72;1.98;;;;;;;-3.30;82.61;101242.72;4879044;28;20061;-64
2023/03/10 00:34:25;;;;;;;2.38;1.52;;;;;;;-3.30;82.63;101238.47;4914529;28;20058;-67
2023/03/10 00:36:56;;;;;;;5.90;2.75;;;;;;;-3.20;82.23;101237.31;4913797;28;20063;-65
2023/03/10 00:39:26;;;;;;;7.35;3.88;;;;;;;-3.01;81.93;101235.78;4911930;28;20048;-67
2023/03/10 00:41:59;;;;;;;6.05;3.30;;;;;;;-2.73;81.12;101233.88;4909751;28;20513;-70
2023/03/10 00:44:29;;;;;;;4.40;2.47;;;;;;;-2.51;79.93;101240.13;4906034;28;20120;-65
2023/03/10 00:47:00;;;;;;;2.78;2.15;;;;;;;-2.64;79.51;101234.38;4914831;28;20784;-65
2023/03/10 00:49:30;;;;;;;2.85;1.95;;;;;;;-2.75;80.16;101240.56;4913749;28;20054;-64
2023/03/10 00:52:01;;;;;;;3.28;1.98;;;;;;;-3.08;80.84;101204.75;4911025;28;20131;-64
2023/03/10 00:54:31;;;;;;;3.33;1.58;;;;;;;-3.12;82.16;101233.53;4910640;28;20762;-63
2023/03/10 00:57:04;;;;;;;2.13;1.70;;;;;;;-3.32;83.03;101228.97;4910410;28;20051;-64
2023/03/10 00:59:35;;;;;;;2.67;1.63;;;;;;;-3.41;83.92;101234.47;4905843;28;20066;-65
2023/03/10 01:02:19;;;;;;;3.13;1.77;;;;;;;-3.81;85.35;101175.19;4889464;28;20606;-67
2023/03/10 01:04:49;;;;;;;3.15;1.98;;;;;;;-3.54;85.71;101227.81;4894606;28;20551;-67
2023/03/10 01:07:20;;;;;;;3.90;1.67;;;;;;;-3.54;86.11;101211.59;4903011;28;20450;-70
2023/03/10 01:09:50;;;;;;;5.00;2.08;;;;;;;-3.48;85.50;101212.78;4901619;28;20063;-69
2023/03/10 01:12:23;;;;;;;3.78;2.28;;;;;;;-3.39;85.43;101196.22;4909453;28;20151;-70
2023/03/10 01:14:53;;;;;;;2.15;1.77;;;;;;;-3.15;85.00;101212.88;4903233;28;20063;-67
2023/03/10 01:17:24;;;;;;;2.90;1.80;;;;;;;-3.14;84.13;101208.66;4903891;28;20136;-65
2023/03/10 01:19:54;;;;;;;3.25;1.90;;;;;;;-3.17;84.54;101209.38;4893014;28;20510;-68
2023/03/10 01:22:25;;;;;;;2.88;1.70;;;;;;;-3.04;84.66;101211.78;4892446;28;20092;-67
2023/03/10 01:24:55;;;;;;;3.47;2.15;;;;;;;-2.97;83.66;101212.09;4911434;28;20155;-66
2023/03/10 01:27:28;;;;;;;1.60;1.50;;;;;;;-2.97;83.60;101209.53;4895403;28;20475;-63
2023/03/10 01:29:58;;;;;;;4.25;1.73;;;;;;;-3.03;84.02;101213.53;4892429;28;20052;-66
2023/03/10 01:32:29;;;;;;;3.50;2.10;;;;;;;-3.19;85.16;101205.84;4893598;28;20875;-66
2023/03/10 01:34:59;;;;;;;3.13;1.80;;;;;;;-3.22;85.14;101195.47;4909739;28;20079;-64
2023/03/10 01:37:30;;;;;;;3.10;1.80;;;;;;;-3.29;85.73;101195.94;4918266;28;20060;-64
2023/03/10 01:40:03;;;;;;;2.45;1.40;;;;;;;-3.42;86.08;101180.72;4913049;28;20054;-67
2023/03/10 01:42:35;;;;;;;2.97;1.70;;;;;;;-3.28;86.03;101184.91;4909866;28;20045;-66
2023/03/10 01:45:26;;;;;;;2.15;1.67;;;;;;;-3.30;85.73;101186.50;4909707;28;20466;-65
2023/03/10 01:47:57;;;;;;;3.33;1.83;;;;;;;-3.07;85.54;101190.28;4898070;28;20052;-69
2023/03/10 01:50:28;;;;;;;2.35;1.85;;;;;;;-3.07;84.91;101178.41;4909482;28;20059;-65
2023/03/10 01:52:59;;;;;;;3.10;1.55;;;;;;;-3.30;85.27;101146.47;4909437;28;20067;-65
2023/03/10 01:55:32;;;;;;;3.95;1.77;;;;;;;-3.07;85.86;101180.03;4906059;28;20076;-65
2023/03/10 01:58:07;;;;;;;4.88;2.05;;;;;;;-3.05;85.63;101184.44;4910138;28;20048;-64
2023/03/10 02:00:38;;;;;;;3.10;1.90;;;;;;;-3.08;85.50;101168.94;4898107;28;20052;-65
2023/03/10 02:03:11;;;;;;;2.35;1.67;;;;;;;-2.93;85.53;101183.34;4893774;28;20068;-65
2023/03/10 02:05:46;;;;;;;5.45;1.92;;;;;;;-2.94;85.27;101162.00;4883938;28;20119;-66
2023/03/10 02:08:19;;;;;;;3.58;1.90;;;;;;;-3.07;85.87;101163.06;4894516;28;20041;-65
2023/03/10 02:10:50;;;;;;;2.35;1.80;;;;;;;-3.02;85.17;101153.06;4897201;28;20532;-66
2023/03/10 02:13:22;;;;;;;4.05;1.70;;;;;;;-2.96;85.60;101172.97;4906516;28;20054;-65
2023/03/10 02:15:53;;;;;;;2.05;1.45;;;;;;;-3.09;85.59;101169.75;4900045;28;20104;-67
2023/03/10 02:18:24;;;;;;;2.65;1.80;;;;;;;-2.94;85.54;101181.59;4894854;28;20479;-66
2023/03/10 02:21:02;;;;;;;1.73;1.60;;;;;;;-2.82;84.96;101166.91;4891159;28;20060;-64
2023/03/10 02:23:42;;;;;;;5.63;2.10;;;;;;;-2.71;84.68;101176.00;4890062;28;20102;-65
2023/03/10 02:26:31;;;;;;;3.17;1.52;;;;;;;-2.76;84.07;101171.44;4891978;28;20071;-68
2023/03/10 02:29:06;;;;;;;2.35;1.27;;;;;;;-2.75;84.38;101184.31;4885048;28;20049;-69
2023/03/10 02:31:37;;;;;;;1.67;1.40;;;;;;;-2.88;84.72;101167.44;4875099;28;20058;-65
2023/03/10 02:34:09;;;;;;;2.40;1.65;;;;;;;-2.79;84.53;101146.59;4895118;28;20045;-67
2023/03/10 02:36:39;;;;;;;3.78;1.45;;;;;;;-2.70;84.74;101162.38;4892913;28;20087;-65
2023/03/10 02:39:10;;;;;;;4.07;1.58;;;;;;;-2.64;83.85;101167.84;4899530;28;20096;-67
2023/03/10 02:41:42;;;;;;;2.47;1.38;;;;;;;-2.68;84.36;101160.78;4891052;28;20115;-67
2023/03/10 02:44:19;;;;;;;2.60;1.30;;;;;;;-2.67;84.11;101157.47;4891255;28;20084;-69
2023/03/10 02:46:50;;;;;;;2.72;1.63;;;;;;;-2.65;84.45;101155.81;4887034;28;20803;-69
2023/03/10 02:49:24;;;;;;;2.00;1.50;;;;;;;-2.51;83.80;101163.34;4893962;28;20048;-65
2023/03/10 02:51:56;;;;;;;3.05;1.95;;;;;;;-2.27;82.44;101164.59;4891026;28;20152;-69
2023/03/10 02:54:26;;;;;;;3.95;1.50;;;;;;;-2.19;81.62;101141.91;4890832;28;20061;-67
2023/03/10 02:56:57;;;;;;;1.55;1.35;;;;;;;-2.21;81.65;101149.50;4891113;28;20063;-67
2023/03/10 02:59:29;;;;;;;1.77;1.42;;;;;;;-2.49;82.94;101146.41;4898298;28;20341;-68
2023/03/10 03:02:01;;;;;;;1.25;1.10;;;;;;;-2.56;82.85;101149.44;4902265;28;20054;-68
2023/03/10 03:04:31;;;;;;;1.88;1.20;;;;;;;-2.52;82.39;101146.22;4909986;28;20044;-68
2023/03/10 03:07:02;;;;;;;3.92;1.33;;;;;;;-2.30;82.49;101149.06;4899480;28;20060;-68
2023/03/10 03:09:33;;;;;;;2.80;1.48;;;;;;;-2.19;81.25;101142.78;4891629;28;20490;-71
2023/03/10 03:12:04;;;;;;;2.13;1.20;;;;;;;-2.28;81.23;101147.44;4906970;28;20463;-70
2023/03/10 03:14:36;;;;;;;1.85;1.10;;;;;;;-2.21;81.14;101113.66;4906046;28;20087;-66
2023/03/10 03:17:06;;;;;;;2.80;1.42;;;;;;;-2.26;80.92;101129.63;4909151;28;20052;-65
2023/03/10 03:19:37;;;;;;;1.35;1.15;;;;;;;-2.21;80.62;101126.47;4909949;28;20114;-67
2023/03/10 03:22:07;;;;;;;3.00;1.17;;;;;;;-2.05;80.66;101125.53;4913507;28;20151;-66
2023/03/10 03:24:38;;;;;;;2.08;1.33;;;;;;;-2.03;79.37;101111.13;4912658;28;20054;-66
2023/03/10 03:27:08;;;;;;;2.95;1.40;;;;;;;-1.97;79.45;101128.47;4921912;28;20042;-66
2023/03/10 03:29:41;;;;;;;4.90;1.90;;;;;;;-1.83;78.87;101132.56;4911676;28;20069;-65
2023/03/10 03:32:11;;;;;;;1.30;1.13;;;;;;;-1.87;79.25;101125.56;4906767;28;20065;-66
2023/03/10 03:34:42;;;;;;;2.45;1.20;;;;;;;-1.76;79.05;101110.69;4900257;28;20053;-67
2023/03/10 03:37:12;;;;;;;1.75;1.20;;;;;;;-1.94;78.85;101120.94;4879435;28;20073;-66
2023/03/10 03:39:43;;;;;;;1.30;1.20;;;;;;;-1.91;79.11;101123.63;4897817;28;20207;-67
2023/03/10 03:42:14;;;;;;;1.25;1.15;;;;;;;-1.97;78.75;101119.09;4882273;28;20057;-66
2023/03/10 03:44:46;;;;;;;1.35;1.25;;;;;;;-2.04;79.08;101116.19;4895912;28;20047;-68
2023/03/10 03:47:16;;;;;;;3.65;1.02;;;;;;;-2.00;78.63;101098.47;4895826;28;20067;-66
2023/03/10 03:49:47;;;;;;;1.35;1.13;;;;;;;-1.83;78.46;101101.81;4899371;28;20533;-66
2023/03/10 03:52:18;;;;;;;2.17;1.10;;;;;;;-1.84;78.42;101104.31;4897065;28;20063;-65
2023/03/10 03:54:48;;;;;;;1.00;0.90;;;;;;;-2.03;78.73;101107.69;4895828;28;20045;-66
2023/03/10 03:57:19;;;;;;;1.75;1.10;;;;;;;-1.94;78.30;101113.25;4893133;28;20061;-67
2023/03/10 03:59:51;;;;;;;1.00;1.00;;;;;;;-1.95;78.04;101119.16;4909888;28;20062;-68
2023/03/10 04:02:22;;;;;;;1.60;1.15;;;;;;;-2.02;78.10;101094.06;4909126;28;20045;-67
2023/03/10 04:04:54;;;;;;;1.42;1.13;;;;;;;-2.04;78.49;101100.81;4893907;28;20045;-68
2023/03/10 04:07:25;;;;;;;1.20;1.10;;;;;;;-2.12;78.89;101097.88;4893522;28;20068;-67
2023/03/10 04:09:55;;;;;;;1.88;1.10;;;;;;;-2.14;78.57;101094.38;4912542;28;20147;-68
2023/03/10 04:12:28;;;;;;;2.00;1.30;;;;;;;-2.19;79.15;101083.91;4909280;28;20694;-67
2023/03/10 04:15:00;;;;;;;2.58;1.15;;;;;;;-2.14;78.69;101078.13;4908809;28;20067;-68
2023/03/10 04:17:31;;;;;;;1.20;1.10;;;;;;;-2.06;78.31;101081.94;4898176;28;20058;-69
2023/03/10 04:20:04;;;;;;;1.63;1.30;;;;;;;-2.23;79.12;101079.44;4909835;28;20048;-68
2023/03/10 04:22:37;;;;;;;1.40;1.30;;;;;;;-2.05;78.37;101081.13;4911541;28;20048;-67
2023/03/10 04:25:09;;;;;;;2.05;1.30;;;;;;;-2.03;77.70;101056.47;4908739;28;20068;-70
2023/03/10 04:27:39;;;;;;;2.33;1.40;;;;;;;-1.96;78.28;101074.75;4908003;28;20053;-67
2023/03/10 04:30:14;;;;;;;1.17;1.17;;;;;;;-1.86;78.02;101081.19;4916080;28;20549;-69
2023/03/10 04:32:44;;;;;;;1.15;1.00;;;;;;;-1.69;77.17;101078.53;4913232;28;20057;-66
2023/03/10 04:35:17;;;;;;;1.30;1.20;;;;;;;-1.86;77.09;101080.31;4880472;28;20103;-68
2023/03/10 04:37:48;;;;;;;1.45;1.10;;;;;;;-1.79;77.36;101083.22;4880329;28;20076;-67
2023/03/10 04:40:19;;;;;;;1.42;1.33;;;;;;;-1.88;78.28;101072.53;4910194;28;20050;-67
2023/03/10 04:42:49;;;;;;;1.55;1.42;;;;;;;-1.73;78.39;101073.25;4906750;28;20054;-67
2023/03/10 04:45:21;;;;;;;1.30;1.20;;;;;;;-1.77;77.69;101071.38;4914765;28;20060;-68
2023/03/10 04:47:52;;;;;;;2.00;1.30;;;;;;;-1.88;78.31;101079.34;4911107;28;20626;-67
2023/03/10 04:50:23;;;;;;;1.73;1.40;;;;;;;-2.05;79.66;101063.19;4910871;28;20056;-68
2023/03/10 04:52:55;;;;;;;2.47;1.48;;;;;;;-2.47;79.70;101001.47;4909889;28;20095;-69
2023/03/10 04:55:25;;;;;;;1.40;1.30;;;;;;;-2.19;80.54;101068.53;4911125;28;20147;-67
2023/03/10 04:57:56;;;;;;;2.22;1.52;;;;;;;-2.44;81.04;101052.81;4910793;28;20172;-70
2023/03/10 05:00:28;;;;;;;1.35;1.25;;;;;;;-2.53;82.40;101072.81;4910683;28;20048;-68
2023/03/10 05:02:59;;;;;;;2.20;1.40;;;;;;;-2.55;82.56;101074.44;4910003;28;20048;-67
2023/03/10 05:05:29;;;;;;;3.40;1.75;;;;;;;-2.81;83.43;101043.31;4916537;28;20812;-68
2023/03/10 05:08:00;;;;;;;1.77;1.38;;;;;;;-2.72;83.70;101050.56;4911790;28;20116;-67
2023/03/10 05:10:30;;;;;;;3.88;1.60;;;;;;;-2.57;83.74;101070.91;4908245;28;20044;-68
2023/03/10 05:13:01;;;;;;;2.00;1.48;;;;;;;-2.55;84.03;101074.44;4910929;28;20159;-68
2023/03/10 05:15:35;;;;;;;2.63;1.80;;;;;;;-2.45;83.98;101066.41;4908192;28;20064;-68
2023/03/10 05:18:05;;;;;;;1.75;1.40;;;;;;;-2.35;83.98;101083.94;4906806;28;20102;-68
2023/03/10 05:20:36;;;;;;;6.78;2.03;;;;;;;-2.48;84.27;101079.03;4906689;28;20079;-68
2023/03/10 05:23:07;;;;;;;2.38;1.63;;;;;;;-2.35;84.11;101083.94;4906811;28;20128;-68
2023/03/10 05:25:37;;;;;;;2.50;1.50;;;;;;;-2.41;83.97;101104.16;4907391;28;20055;-68
2023/03/10 05:28:08;;;;;;;1.90;1.42;;;;;;;-2.50;84.39;101106.25;4911142;28;20052;-69
2023/03/10 05:30:40;;;;;;;2.10;1.55;;;;;;;-2.53;84.98;101113.75;4906443;28;20072;-69
2023/03/10 05:33:11;;;;;;;1.75;1.45;;;;;;;-2.70;85.25;101098.44;4877863;28;20052;-68
2023/03/10 05:35:41;;;;;;;2.00;1.60;;;;;;;-2.62;85.54;101098.84;4885576;28;20466;-68
2023/03/10 05:38:12;;;;;;;3.63;2.15;;;;;;;-2.65;86.68;101091.88;4894394;28;20056;-68
2023/03/10 05:40:43;;;;;;;3.17;2.20;;;;;;;-2.66;86.90;101108.03;4897799;28;20048;-68
2023/03/10 05:43:14;;;;;;;3.65;1.73;;;;;;;-2.79;87.21;101095.44;4901662;28;20152;-69
2023/03/10 05:45:56;;;;;;;3.88;1.92;;;;;;;-2.65;87.39;101104.66;4896474;28;20920;-68
2023/03/10 05:48:27;;;;;;;2.05;1.77;;;;;;;-2.74;86.98;101100.78;4892427;28;20053;-69
2023/03/10 05:51:02;;;;;;;4.88;2.05;;;;;;;-2.73;87.42;101116.19;4895899;28;20049;-71
2023/03/10 05:53:33;;;;;;;6.32;2.40;;;;;;;-2.85;88.03;101102.78;4890975;28;20044;-70
2023/03/10 05:56:07;;;;;;;7.97;2.40;;;;;;;-2.82;88.36;101120.88;4901113;28;20044;-68
2023/03/10 05:58:38;;;;;;;3.85;2.40;;;;;;;-2.72;88.07;101122.19;4899205;28;20053;-69
2023/03/10 06:01:11;;;;;;;2.55;1.77;;;;;;;-3.18;87.25;101054.22;4911446;28;20073;-69
2023/03/10 06:03:41;;;;;;;4.10;2.00;;;;;;;-2.84;88.00;101113.09;4908295;28;20052;-70
2023/03/10 06:06:13;;;;;;;2.83;1.80;;;;;;;-2.78;87.47;101117.63;4910328;28;20082;-70
2023/03/10 06:08:43;;;;;;;4.57;2.95;;;;;;;-2.84;87.49;101137.81;4910957;28;20144;-70
2023/03/10 06:11:14;;;;;;;9.13;3.83;;;;;;;-2.80;87.34;101132.03;4909161;28;20059;-70
2023/03/10 06:13:44;;;;;;;7.25;3.60;;;;;;;-2.79;87.06;101131.25;4915479;28;20661;-70
2023/03/10 06:16:17;;;;;;;5.10;2.80;;;;;;;-2.78;86.99;101150.91;4909316;28;20063;-69
2023/03/10 06:18:47;;;;;;;5.15;2.38;;;;;;;-2.91;87.26;101144.28;4902295;28;20821;-71
2023/03/10 06:21:19;;;;;;;6.40;3.83;;;;;;;-2.91;88.03;101135.72;4895564;28;20731;-69
2023/03/10 06:23:58;;;;;;;3.70;2.08;;;;;;;-3.00;87.71;101130.13;4904449;28;20425;-69
2023/03/10 06:26:34;;;;;;;4.63;1.70;;;;;;;-2.84;88.39;101132.69;4874111;28;20112;-70
2023/03/10 06:29:06;;;;;;;3.00;2.08;;;;;;;-2.84;87.88;101142.91;4894415;28;20134;-70
2023/03/10 06:31:39;;;;;;;2.22;1.88;;;;;;;-2.89;87.25;101118.78;4885126;28;20097;-70
2023/03/10 06:34:10;;;;;;;6.55;1.75;;;;;;;-2.84;87.64;101135.25;4905260;28;20327;-70
2023/03/10 06:36:41;;;;;;;6.55;2.42;;;;;;;-2.86;87.64;101139.41;4902335;28;20755;-70
2023/03/10 06:39:11;;;;;;;8.10;3.22;;;;;;;-2.93;88.59;101127.09;4899861;28;20119;-70
2023/03/10 06:41:42;;;;;;;3.00;1.80;;;;;;;-3.00;88.42;101140.34;4900251;28;20396;-70
2023/03/10 06:44:17;;;;;;;3.47;1.70;;;;;;;-3.41;88.50;101070.94;4902448;28;20063;-70
2023/03/10 06:46:50;;;;;;;7.43;3.22;;;;;;;-3.49;89.20;101057.75;4900794;28;20738;-70
2023/03/10 06:49:20;;;;;;;4.60;2.40;;;;;;;-3.01;89.07;101123.25;4894403;28;20132;-70
2023/03/10 06:51:51;;;;;;;4.53;2.47;;;;;;;-3.05;89.67;101137.56;4904140;28;20056;-70
2023/03/10 06:54:22;;;;;;;3.70;1.98;;;;;;;-3.03;89.30;101141.94;4904454;28;20054;-71
2023/03/10 06:56:53;;;;;;;4.75;2.40;;;;;;;-3.10;89.36;101138.97;4905053;28;20063;-70
2023/03/10 06:59:24;;;;;;;4.57;2.58;;;;;;;-3.16;89.71;101142.09;4904661;28;20059;-70
2023/03/10 07:01:56;;;;;;;5.72;2.40;;;;;;;-3.18;89.97;101151.38;4903918;28;20154;-70
2023/03/10 07:04:26;;;;;;;3.00;2.05;;;;;;;-3.19;90.29;101164.97;4906854;28;20148;-71
2023/03/10 07:06:57;;;;;;;3.45;2.30;;;;;;;-3.19;90.43;101170.06;4906869;28;20052;-71
2023/03/10 07:09:28;;;;;;;4.03;2.22;;;;;;;-3.24;90.29;101171.50;4905465;28;20055;-71
2023/03/10 07:11:59;;;;;;;5.47;2.92;;;;;;;-3.21;90.51;101176.78;4903348;28;22586;-70
2023/03/10 07:14:29;;;;;;;2.70;2.05;;;;;;;-3.17;90.22;101172.69;4901760;28;21608;-71
2023/03/10 07:17:02;;;;;;;2.28;1.60;;;;;;;-3.12;89.56;101151.72;4909442;28;20054;-71
2023/03/10 07:19:33;;;;;;;3.72;1.60;;;;;;;-3.09;89.33;101162.09;4906335;28;20604;-70
2023/03/10 07:22:03;;;;;;;2.47;1.77;;;;;;;-3.12;88.97;101161.94;4905969;28;20056;-70
2023/03/10 07:24:34;;;;;;;3.50;1.52;;;;;;;-3.26;88.91;101137.31;4907731;28;20059;-70
2023/03/10 07:27:05;;;;;;;2.35;1.67;;;;;;;-3.06;88.82;101172.47;4905239;28;20049;-71
2023/03/10 07:29:36;;;;;;;2.88;1.55;;;;;;;-3.06;87.38;101175.03;4904775;28;20049;-69
2023/03/10 07:32:08;;;;;;;1.60;1.40;;;;;;;-3.00;87.47;101166.78;4905850;28;20045;-70
2023/03/10 07:34:39;;;;;;;2.25;1.50;;;;;;;-3.01;87.68;101165.03;4906223;28;20121;-69
2023/03/10 07:37:09;;;;;;;3.22;1.90;;;;;;;-3.04;87.22;101155.53;4920310;28;20199;-71
2023/03/10 07:39:40;;;;;;;2.83;1.77;;;;;;;-2.97;87.42;101181.41;4910574;28;20064;-69
2023/03/10 07:42:10;;;;;;;3.25;1.77;;;;;;;-3.05;87.04;101174.22;4912519;28;20053;-72
2023/03/10 07:44:41;;;;;;;2.35;1.92;;;;;;;-3.06;87.17;101182.69;4907323;28;20056;-71
2023/03/10 07:47:13;;;;;;;2.17;1.63;;;;;;;-3.10;87.56;101197.78;4908031;28;20049;-73
2023/03/10 07:49:45;;;;;;;3.33;2.50;;;;;;;-3.23;88.26;101193.69;4905064;28;20080;-70
2023/03/10 07:52:17;;;;;;;3.20;2.15;;;;;;;-3.33;88.46;101188.88;4908101;28;20052;-71
2023/03/10 07:54:47;;;;;;;4.45;2.10;;;;;;;-3.31;88.78;101197.53;4911857;28;20051;-70
2023/03/10 07:57:18;;;;;;;2.33;1.70;;;;;;;-3.32;88.80;101208.53;4906265;28;20212;-71
2023/03/10 07:59:48;;;;;;;3.65;2.15;;;;;;;-3.38;88.85;101203.09;4909218;28;20082;-68
2023/03/10 08:02:22;;;;;;;2.72;2.15;;;;;;;-3.31;89.34;101216.28;4905504;28;20562;-69
2023/03/10 08:04:53;;;;;;;3.00;1.98;;;;;;;-3.36;88.97;101214.28;4906483;28;20075;-71
2023/03/10 08:07:30;;;;;;;2.05;1.85;;;;;;;-3.34;88.56;101222.91;4909271;28;20536;-70
2023/03/10 08:10:01;;;;;;;4.43;2.15;;;;;;;-3.37;88.72;101226.19;4897045;28;20155;-69
2023/03/10 08:12:58;;;;;;;5.57;2.83;;;;;;;-3.37;88.85;101230.38;4901949;28;20048;-72
2023/03/10 08:15:51;;;;;;;3.60;2.75;;;;;;;-3.40;89.00;101232.78;4899507;28;20064;-68
2023/03/10 08:18:28;;;;;;;3.70;2.60;;;;;;;-3.87;88.90;101164.59;4892263;28;20052;-69
2023/03/10 08:21:04;;;;;;;3.83;3.15;;;;;;;-3.58;89.09;101215.63;4904911;28;20071;-70
2023/03/10 08:23:46;;;;;;;5.25;2.53;;;;;;;-3.44;89.04;101246.19;4905120;28;20148;-72
2023/03/10 08:26:21;;;;;;;3.97;2.70;;;;;;;-3.53;89.41;101224.44;4904319;28;20045;-71
2023/03/10 08:28:51;;;;;;;7.47;2.63;;;;;;;-3.47;89.50;101250.34;4905482;28;20055;-70
2023/03/10 08:31:22;;;;;;;3.38;2.30;;;;;;;-3.76;89.24;101199.28;4909616;28;20139;-72
2023/03/10 08:33:59;;;;;;;4.38;2.55;;;;;;;-3.65;89.37;101233.97;4904010;28;20052;-70
2023/03/10 08:36:31;;;;;;;6.50;2.97;;;;;;;-3.53;89.46;101260.19;4901021;28;20065;-70
2023/03/10 08:39:04;;;;;;;4.68;3.20;;;;;;;-3.69;89.92;101237.16;4909446;28;20056;-69
2023/03/10 08:41:37;;;;;;;7.53;3.50;;;;;;;-3.84;89.76;101203.06;4906007;28;20048;-71
2023/03/10 08:44:10;;;;;;;5.25;3.10;;;;;;;-3.51;89.67;101262.84;4909797;28;20084;-70
2023/03/10 08:46:46;;;;;;;5.05;2.88;;;;;;;-3.54;89.50;101261.00;4896367;28;20094;-68
2023/03/10 08:49:20;;;;;;;3.40;2.58;;;;;;;-3.55;89.72;101256.69;4907118;28;20465;-68
2023/03/10 08:51:50;;;;;;;3.65;2.80;;;;;;;-3.85;89.44;101206.44;4901154;28;21217;-68
2023/03/10 08:54:23;;;;;;;3.63;2.38;;;;;;;-3.57;89.52;101253.19;4913856;28;20052;-68
2023/03/10 08:56:56;;;;;;;6.78;3.00;;;;;;;-3.53;89.51;101272.97;4909977;28;20049;-69
2023/03/10 08:59:27;;;;;;;2.80;2.33;;;;;;;-3.56;89.61;101275.38;4904526;28;20045;-71
2023/03/10 09:02:01;;;;;;;5.13;2.65;;;;;;;-3.60;90.17;101270.88;4912965;28;20049;-69
2023/03/10 09:04:33;;;;;;;5.72;3.40;;;;;;;-3.54;90.50;101278.91;4889457;28;20233;-71
2023/03/10 09:07:04;;;;;;;3.95;2.90;;;;;;;-3.56;90.38;101280.47;4906802;28;20602;-69
2023/03/10 09:09:38;;;;;;;5.25;2.97;;;;;;;-3.50;90.29;101287.59;4903945;28;20056;-70
2023/03/10 09:12:14;;;;;;;3.80;2.55;;;;;;;-3.52;90.18;101292.66;4910201;28;20061;-69
2023/03/10 09:14:44;;;;;;;3.40;2.58;;;;;;;-3.50;90.48;101291.03;4908882;28;20074;-70
2023/03/10 09:17:15;;;;;;;4.70;2.70;;;;;;;-3.53;90.59;101285.75;4901164;28;20052;-71
2023/03/10 09:19:48;;;;;;;3.25;2.10;;;;;;;-3.53;89.82;101290.88;4908180;28;20056;-68
2023/03/10 09:22:19;;;;;;;6.03;2.95;;;;;;;-3.53;89.75;101295.09;4906501;28;20055;-70
2023/03/10 09:25:13;;;;;;;4.10;2.70;;;;;;;-4.19;89.56;101191.75;4901488;28;20080;-72
2023/03/10 09:31:33;;;;;;;3.30;2.63;;;;;;;-3.59;89.67;101285.41;4899179;28;20828;-71
2023/03/10 09:34:05;;;;;;;3.90;2.60;;;;;;;-3.58;89.73;101287.16;4895213;28;20060;-71
2023/03/10 09:36:41;;;;;;;4.43;2.70;;;;;;;-3.58;90.01;101287.16;4901263;28;20044;-71
2023/03/10 09:39:12;;;;;;;3.88;2.70;;;;;;;-3.59;89.79;101280.31;4902961;28;20540;-73
2023/03/10 09:42:08;;;;;;;5.13;2.75;;;;;;;-3.61;89.02;101283.56;4909513;28;20063;-71
2023/03/10 09:44:47;;;;;;;3.92;2.78;;;;;;;-3.59;88.69;101272.66;4885742;28;20075;-68
2023/03/10 09:47:27;;;;;;;2.53;2.25;;;;;;;-4.00;88.05;101198.78;4909544;28;20395;-72
2023/03/10 09:50:21;;;;;;;3.72;2.78;;;;;;;-3.55;87.78;101269.44;4894628;28;20072;-67
2023/03/10 09:53:01;;;;;;;4.38;2.13;;;;;;;-3.56;88.18;101266.84;4896096;28;20055;-70
2023/03/10 09:55:36;;;;;;;5.35;3.00;;;;;;;-3.57;88.41;101268.50;4888005;28;20766;-70
2023/03/10 09:58:30;;;;;;;3.75;2.53;;;;;;;-3.59;88.23;101275.19;4898090;28;20044;-67
2023/03/10 10:01:06;;;;;;;4.18;2.85;;;;;;;-3.63;88.43;101278.38;4899100;28;20052;-68
2023/03/10 10:03:42;;;;;;;4.05;2.45;;;;;;;-3.69;88.17;101278.03;4903723;28;20110;-70
2023/03/10 10:06:25;;;;;;;4.43;2.80;;;;;;;-3.71;88.74;101287.28;4899891;28;20063;-71
2023/03/10 10:09:01;;;;;;;4.53;2.78;;;;;;;-3.73;88.85;101292.28;4902573;28;20824;-67
2023/03/10 10:11:37;;;;;;;4.28;3.15;;;;;;;-3.74;89.02;101282.00;4891968;28;20049;-69
2023/03/10 10:14:16;;;;;;;3.15;1.95;;;;;;;-3.76;89.21;101281.91;4909793;28;20068;-72
2023/03/10 10:17:09;;;;;;;4.25;2.60;;;;;;;-3.97;89.52;101250.91;4884662;28;20222;-70
2023/03/10 10:19:41;;;;;;;6.03;2.65;;;;;;;-3.81;89.63;101287.53;4906426;28;20060;-72
2023/03/10 10:22:20;;;;;;;4.70;2.45;;;;;;;-3.84;89.86;101282.22;4911070;28;20055;-74
2023/03/10 10:43:50;;;;;;;3.58;2.70;;;;;;;-3.94;90.97;101308.94;4903197;28;20090;-67
2023/03/10 10:46:27;;;;;;;5.75;3.10;;;;;;;-4.01;91.12;101305.13;4894237;28;20055;-68
2023/03/10 10:49:20;;;;;;;4.95;3.00;;;;;;;-4.07;91.34;101303.88;4905120;28;20716;-70
2023/03/10 10:52:00;;;;;;;7.00;3.15;;;;;;;-3.98;91.68;101305.28;4884472;28;20056;-70
2023/03/10 10:54:38;;;;;;;4.43;3.17;;;;;;;-3.96;91.74;101308.81;4893768;28;20099;-71
2023/03/10 10:57:19;;;;;;;8.48;3.38;;;;;;;-4.03;91.91;101311.81;4906153;28;20512;-67
2023/03/10 10:59:53;;;;;;;9.35;4.05;;;;;;;-4.16;91.92;101286.34;4903986;28;20050;-67
2023/03/10 11:02:32;;;;;;;6.32;3.40;;;;;;;-3.97;91.81;101324.94;4897478;28;20076;-69
2023/03/10 11:05:16;;;;;;;6.70;3.38;;;;;;;-3.97;92.02;101330.06;4896615;28;20056;-68
2023/03/10 11:07:49;;;;;;;5.97;3.53;;;;;;;-3.96;91.93;101334.34;4895652;28;20614;-73
2023/03/10 11:10:23;;;;;;;6.57;3.70;;;;;;;-4.05;92.08;101332.94;4900692;28;20669;-71
2023/03/10 11:13:03;;;;;;;6.75;3.65;;;;;;;-3.97;91.93;101347.94;4905492;28;20057;-67
2023/03/10 11:15:42;;;;;;;10.52;4.00;;;;;;;-4.02;92.09;101349.31;4892236;28;20075;-70
2023/03/10 11:18:19;;;;;;;4.28;2.83;;;;;;;-4.06;91.90;101346.50;4896760;28;20091;-72
2023/03/10 11:20:56;;;;;;;6.05;3.60;;;;;;;-3.99;92.06;101363.94;4900211;28;20136;-67
2023/03/10 11:23:32;;;;;;;6.15;3.20;;;;;;;-4.59;92.11;101268.47;4905054;28;20063;-68
2023/03/10 11:26:14;;;;;;;6.90;3.65;;;;;;;-4.06;91.91;101349.91;4898143;28;20051;-71
2023/03/10 11:28:53;;;;;;;5.47;3.58;;;;;;;-4.02;92.22;101351.88;4892964;28;20167;-72
2023/03/10 11:31:40;;;;;;;5.10;3.25;;;;;;;-4.02;92.47;101366.28;4897830;28;20056;-70
2023/03/10 11:34:20;;;;;;;6.10;3.20;;;;;;;-4.08;93.06;101359.16;4897501;28;20537;-67
2023/03/10 11:36:58;;;;;;;;;;;;;;;-4.11;93.52;101369.19;4897580;28;20060;-69
2023/03/10 11:39:42;;;;;;;4.53;2.78;;;;;;;-4.40;94.05;101326.59;4910985;28;20212;-66
2023/03/10 11:42:23;;;;;;;5.22;2.92;;;;;;;-4.27;94.03;101351.16;4891219;28;20064;-68
2023/03/10 11:45:05;;;;;;;6.70;2.85;;;;;;;-4.16;94.18;101365.47;4901233;28;20052;-66
2023/03/10 11:47:57;;;;;;;7.85;3.13;;;;;;;-4.20;94.05;101379.69;4901501;28;20044;-67
2023/03/10 11:50:37;;;;;;;5.95;3.35;;;;;;;-4.20;94.24;101368.63;4893753;28;20056;-72
2023/03/10 11:53:16;;;;;;;5.82;3.50;;;;;;;-4.27;94.50;101371.59;4897907;28;20056;-69
2023/03/10 11:55:49;;;;;;;5.18;3.10;;;;;;;-4.22;94.64;101377.84;4896731;28;20132;-67
2023/03/10 11:58:27;;;;;;;3.83;2.83;;;;;;;-4.34;95.42;101366.13;4901109;28;20652;-66
2023/03/10 12:01:00;;;;;;;4.88;3.33;;;;;;;-4.37;96.12;101376.16;4907366;28;20048;-68
2023/03/10 12:03:47;;;;;;;3.65;2.72;;;;;;;-4.45;96.83;101382.41;4900723;28;20067;-70
2023/03/10 12:06:23;;;;;;;3.83;2.50;;;;;;;-4.52;96.69;101400.69;4900092;28;20079;-67
2023/03/10 12:08:59;;;;;;;7.80;2.88;;;;;;;-4.59;97.61;101388.34;4892435;28;20060;-68
2023/03/10 12:11:32;;;;;;;3.50;2.42;;;;;;;-4.54;97.63;101386.97;4903300;28;20109;-67
2023/03/10 12:14:04;;;;;;;3.67;2.80;;;;;;;-4.79;97.79;101362.47;4905326;28;20052;-66
2023/03/10 12:16:40;;;;;;;5.93;3.35;;;;;;;-4.67;98.47;101379.31;4901069;28;20246;-69